Herndon, Kentucky
Current Conditions -  °F | °C
As of 1:58 AM on Saturday 29 Nov 2014 (Local Time) from KHOP Reporting Station
Clear Clear  
Wind Chill: 36°   Ceiling: Unl
Heat Index: 42°   Visibility: 10mi
Dew Point: 25°   Wind: 8mph
Humidity: 51%   Direction: 180°S
Pressure: 30.07"   Gusts: NA
Location:  36.73°N, 87.57°W
Report Text: KHOP 290758Z AUTO 18007KT 10SM CLR 05/M04 A3007 RMK AO2 SLP186 T00531040 $
Loading
Personal Weather Stations






























Interactive Weather Map New forecast layout! Learn more

10-Day Weather Forecast

Advertisements
Track Severe Weather on mobile